sensor_id;sensor_type;location;lat;lon;timestamp;temperature;humidity
25973;DHT22;13765;51.166;4.466;2023-04-28T00:01:44;11.30;99.90
25973;DHT22;13765;51.166;4.466;2023-04-28T00:04:12;11.20;99.90
25973;DHT22;13765;51.166;4.466;2023-04-28T00:06:40;11.20;99.90
25973;DHT22;13765;51.166;4.466;2023-04-28T00:09:06;11.10;99.90
25973;DHT22;13765;51.166;4.466;2023-04-28T00:11:36;11.10;99.90
25973;DHT22;13765;51.166;4.466;2023-04-28T00:14:03;11.10;99.90
25973;DHT22;13765;51.166;4.466;2023-04-28T00:16:28;11.10;99.90
25973;DHT22;13765;51.166;4.466;2023-04-28T00:18:57;11.10;99.90
25973;DHT22;13765;51.166;4.466;2023-04-28T00:21:22;11.10;99.90
25973;DHT22;13765;51.166;4.466;2023-04-28T00:23:48;11.00;99.90
25973;DHT22;13765;51.166;4.466;2023-04-28T00:26:13;10.90;99.90
25973;DHT22;13765;51.166;4.466;2023-04-28T00:28:40;10.80;99.90
25973;DHT22;13765;51.166;4.466;2023-04-28T00:31:13;10.80;99.90
25973;DHT22;13765;51.166;4.466;2023-04-28T00:33:40;10.90;99.90
25973;DHT22;13765;51.166;4.466;2023-04-28T00:36:08;10.90;99.90
25973;DHT22;13765;51.166;4.466;2023-04-28T00:38:34;10.90;99.90
25973;DHT22;13765;51.166;4.466;2023-04-28T00:41:02;11.00;99.90
25973;DHT22;13765;51.166;4.466;2023-04-28T00:43:28;10.90;99.90
25973;DHT22;13765;51.166;4.466;2023-04-28T00:45:54;10.90;99.90
25973;DHT22;13765;51.166;4.466;2023-04-28T00:48:20;10.80;99.90
25973;DHT22;13765;51.166;4.466;2023-04-28T00:50:47;10.70;99.90
25973;DHT22;13765;51.166;4.466;2023-04-28T00:53:13;10.70;99.90
25973;DHT22;13765;51.166;4.466;2023-04-28T00:55:39;10.70;99.90
25973;DHT22;13765;51.166;4.466;2023-04-28T00:58:10;10.70;99.90
25973;DHT22;13765;51.166;4.466;2023-04-28T01:00:36;10.80;99.90
25973;DHT22;13765;51.166;4.466;2023-04-28T01:03:04;11.00;99.90
25973;DHT22;13765;51.166;4.466;2023-04-28T01:05:33;11.00;99.90
25973;DHT22;13765;51.166;4.466;2023-04-28T01:08:01;11.10;99.90
25973;DHT22;13765;51.166;4.466;2023-04-28T01:10:27;10.90;99.90
25973;DHT22;13765;51.166;4.466;2023-04-28T01:12:52;10.90;99.90
25973;DHT22;13765;51.166;4.466;2023-04-28T01:15:23;10.90;99.90
25973;DHT22;13765;51.166;4.466;2023-04-28T01:17:48;10.90;99.90
25973;DHT22;13765;51.166;4.466;2023-04-28T01:20:16;11.00;99.90
25973;DHT22;13765;51.166;4.466;2023-04-28T01:22:42;11.00;99.90
25973;DHT22;13765;51.166;4.466;2023-04-28T01:25:10;11.00;99.90
25973;DHT22;13765;51.166;4.466;2023-04-28T01:27:35;11.10;99.90
25973;DHT22;13765;51.166;4.466;2023-04-28T01:30:04;11.10;99.90
25973;DHT22;13765;51.166;4.466;2023-04-28T01:32:29;11.20;99.90
25973;DHT22;13765;51.166;4.466;2023-04-28T01:34:55;11.20;99.90
25973;DHT22;13765;51.166;4.466;2023-04-28T01:37:21;11.10;99.90
25973;DHT22;13765;51.166;4.466;2023-04-28T01:39:46;11.20;99.90
25973;DHT22;13765;51.166;4.466;2023-04-28T01:42:14;11.10;99.90
25973;DHT22;13765;51.166;4.466;2023-04-28T01:44:40;11.10;99.90
25973;DHT22;13765;51.166;4.466;2023-04-28T01:47:08;11.10;99.90
25973;DHT22;13765;51.166;4.466;2023-04-28T01:49:38;11.00;99.90
25973;DHT22;13765;51.166;4.466;2023-04-28T01:52:03;11.00;99.90
25973;DHT22;13765;51.166;4.466;2023-04-28T01:54:31;11.00;99.90
25973;DHT22;13765;51.166;4.466;2023-04-28T01:56:57;10.90;99.90
25973;DHT22;13765;51.166;4.466;2023-04-28T01:59:25;10.90;99.90
25973;DHT22;13765;51.166;4.466;2023-04-28T02:01:51;10.80;99.90
25973;DHT22;13765;51.166;4.466;2023-04-28T02:04:21;10.70;99.90
25973;DHT22;13765;51.166;4.466;2023-04-28T02:06:47;10.70;99.90
25973;DHT22;13765;51.166;4.466;2023-04-28T02:09:15;10.60;99.90
25973;DHT22;13765;51.166;4.466;2023-04-28T02:11:40;10.60;99.90
25973;DHT22;13765;51.166;4.466;2023-04-28T02:14:06;10.60;99.90
25973;DHT22;13765;51.166;4.466;2023-04-28T02:16:34;10.70;99.90
25973;DHT22;13765;51.166;4.466;2023-04-28T02:19:02;10.70;99.90
25973;DHT22;13765;51.166;4.466;2023-04-28T02:21:28;10.70;99.90
25973;DHT22;13765;51.166;4.466;2023-04-28T02:23:53;10.80;99.90
25973;DHT22;13765;51.166;4.466;2023-04-28T02:26:21;10.80;99.90
25973;DHT22;13765;51.166;4.466;2023-04-28T02:28:52;10.90;99.90
25973;DHT22;13765;51.166;4.466;2023-04-28T02:31:18;10.90;99.90
25973;DHT22;13765;51.166;4.466;2023-04-28T02:33:49;10.90;99.90
25973;DHT22;13765;51.166;4.466;2023-04-28T02:36:14;11.00;99.90
25973;DHT22;13765;51.166;4.466;2023-04-28T02:38:40;11.10;99.90
25973;DHT22;13765;51.166;4.466;2023-04-28T02:41:06;11.20;99.90
25973;DHT22;13765;51.166;4.466;2023-04-28T02:43:34;11.20;99.90
25973;DHT22;13765;51.166;4.466;2023-04-28T02:46:04;11.20;99.90
25973;DHT22;13765;51.166;4.466;2023-04-28T02:48:30;11.20;99.90
25973;DHT22;13765;51.166;4.466;2023-04-28T02:51:00;11.20;99.90
25973;DHT22;13765;51.166;4.466;2023-04-28T02:53:28;11.20;99.90
25973;DHT22;13765;51.166;4.466;2023-04-28T02:55:56;11.20;99.90
25973;DHT22;13765;51.166;4.466;2023-04-28T02:58:25;11.20;99.90
25973;DHT22;13765;51.166;4.466;2023-04-28T03:00:51;11.20;99.90
25973;DHT22;13765;51.166;4.466;2023-04-28T03:03:18;11.20;99.90
25973;DHT22;13765;51.166;4.466;2023-04-28T03:05:46;11.20;99.90
25973;DHT22;13765;51.166;4.466;2023-04-28T03:08:12;11.20;99.90
25973;DHT22;13765;51.166;4.466;2023-04-28T03:10:38;11.20;99.90
25973;DHT22;13765;51.166;4.466;2023-04-28T03:13:03;11.30;99.90
25973;DHT22;13765;51.166;4.466;2023-04-28T03:15:29;11.30;99.90
25973;DHT22;13765;51.166;4.466;2023-04-28T03:17:55;11.30;99.90
25973;DHT22;13765;51.166;4.466;2023-04-28T03:20:20;11.20;99.90
25973;DHT22;13765;51.166;4.466;2023-04-28T03:22:46;11.20;99.90
25973;DHT22;13765;51.166;4.466;2023-04-28T03:25:14;11.20;99.90
25973;DHT22;13765;51.166;4.466;2023-04-28T03:27:40;11.20;99.90
25973;DHT22;13765;51.166;4.466;2023-04-28T03:30:06;11.20;99.90
25973;DHT22;13765;51.166;4.466;2023-04-28T03:32:31;11.20;99.90
25973;DHT22;13765;51.166;4.466;2023-04-28T03:34:57;11.20;99.90
25973;DHT22;13765;51.166;4.466;2023-04-28T03:37:23;11.20;99.90
25973;DHT22;13765;51.166;4.466;2023-04-28T03:39:48;11.20;99.90
25973;DHT22;13765;51.166;4.466;2023-04-28T03:42:16;11.20;99.90
25973;DHT22;13765;51.166;4.466;2023-04-28T03:44:44;11.30;99.90
25973;DHT22;13765;51.166;4.466;2023-04-28T03:47:10;11.30;99.90
25973;DHT22;13765;51.166;4.466;2023-04-28T03:49:38;11.30;99.90
25973;DHT22;13765;51.166;4.466;2023-04-28T03:52:06;11.20;99.90
25973;DHT22;13765;51.166;4.466;2023-04-28T03:54:34;11.10;99.90
25973;DHT22;13765;51.166;4.466;2023-04-28T03:57:00;11.20;99.90
25973;DHT22;13765;51.166;4.466;2023-04-28T03:59:26;11.20;99.90
25973;DHT22;13765;51.166;4.466;2023-04-28T04:01:52;11.20;99.90
25973;DHT22;13765;51.166;4.466;2023-04-28T04:04:20;11.30;99.90
25973;DHT22;13765;51.166;4.466;2023-04-28T04:06:50;11.30;99.90
25973;DHT22;13765;51.166;4.466;2023-04-28T04:09:19;11.20;99.90
25973;DHT22;13765;51.166;4.466;2023-04-28T04:11:47;11.20;99.90
25973;DHT22;13765;51.166;4.466;2023-04-28T04:14:15;11.30;99.90
25973;DHT22;13765;51.166;4.466;2023-04-28T04:16:41;11.20;99.90
25973;DHT22;13765;51.166;4.466;2023-04-28T04:19:09;11.20;99.90
25973;DHT22;13765;51.166;4.466;2023-04-28T04:21:37;11.20;99.90
25973;DHT22;13765;51.166;4.466;2023-04-28T04:24:03;11.20;99.90
25973;DHT22;13765;51.166;4.466;2023-04-28T04:26:32;11.20;99.90
25973;DHT22;13765;51.166;4.466;2023-04-28T04:29:00;11.20;99.90
25973;DHT22;13765;51.166;4.466;2023-04-28T04:31:28;11.20;99.90
25973;DHT22;13765;51.166;4.466;2023-04-28T04:33:53;11.20;99.90
25973;DHT22;13765;51.166;4.466;2023-04-28T04:36:19;11.30;99.90
25973;DHT22;13765;51.166;4.466;2023-04-28T04:38:47;11.30;99.90
25973;DHT22;13765;51.166;4.466;2023-04-28T04:41:13;11.30;99.90
25973;DHT22;13765;51.166;4.466;2023-04-28T04:43:39;11.30;99.90
25973;DHT22;13765;51.166;4.466;2023-04-28T04:46:09;11.30;99.90
25973;DHT22;13765;51.166;4.466;2023-04-28T04:48:37;11.20;99.90
25973;DHT22;13765;51.166;4.466;2023-04-28T04:51:05;11.20;99.90
25973;DHT22;13765;51.166;4.466;2023-04-28T04:53:31;11.30;99.90
25973;DHT22;13765;51.166;4.466;2023-04-28T04:55:57;11.20;99.90
25973;DHT22;13765;51.166;4.466;2023-04-28T04:58:22;11.10;99.90
25973;DHT22;13765;51.166;4.466;2023-04-28T05:00:51;11.20;99.90
25973;DHT22;13765;51.166;4.466;2023-04-28T05:03:16;11.10;99.90
25973;DHT22;13765;51.166;4.466;2023-04-28T05:05:44;11.10;99.90
25973;DHT22;13765;51.166;4.466;2023-04-28T05:08:10;11.10;99.90
25973;DHT22;13765;51.166;4.466;2023-04-28T05:10:39;11.10;99.90
25973;DHT22;13765;51.166;4.466;2023-04-28T05:13:07;11.10;99.90
25973;DHT22;13765;51.166;4.466;2023-04-28T05:15:33;11.00;99.90
25973;DHT22;13765;51.166;4.466;2023-04-28T05:18:00;11.00;99.90
25973;DHT22;13765;51.166;4.466;2023-04-28T05:20:33;11.10;99.90
25973;DHT22;13765;51.166;4.466;2023-04-28T05:22:58;11.10;99.90
25973;DHT22;13765;51.166;4.466;2023-04-28T05:25:29;11.10;99.90
25973;DHT22;13765;51.166;4.466;2023-04-28T05:27:55;11.00;99.90
25973;DHT22;13765;51.166;4.466;2023-04-28T05:30:20;11.10;99.90
25973;DHT22;13765;51.166;4.466;2023-04-28T05:32:48;11.10;99.90
25973;DHT22;13765;51.166;4.466;2023-04-28T05:35:16;11.10;99.90
25973;DHT22;13765;51.166;4.466;2023-04-28T05:37:42;11.10;99.90
25973;DHT22;13765;51.166;4.466;2023-04-28T05:40:09;11.10;99.90
25973;DHT22;13765;51.166;4.466;2023-04-28T05:42:35;11.10;99.90
25973;DHT22;13765;51.166;4.466;2023-04-28T05:45:04;11.10;99.90
25973;DHT22;13765;51.166;4.466;2023-04-28T05:47:32;11.20;99.90
25973;DHT22;13765;51.166;4.466;2023-04-28T05:50:00;11.20;99.90
25973;DHT22;13765;51.166;4.466;2023-04-28T05:52:26;11.30;99.90
25973;DHT22;13765;51.166;4.466;2023-04-28T05:54:54;11.30;99.90
25973;DHT22;13765;51.166;4.466;2023-04-28T05:57:20;11.20;99.90
25973;DHT22;13765;51.166;4.466;2023-04-28T05:59:46;11.30;99.90
25973;DHT22;13765;51.166;4.466;2023-04-28T06:02:12;11.50;99.90
25973;DHT22;13765;51.166;4.466;2023-04-28T06:04:38;11.50;99.90
25973;DHT22;13765;51.166;4.466;2023-04-28T06:07:03;11.60;99.90
25973;DHT22;13765;51.166;4.466;2023-04-28T06:09:29;11.70;99.90
25973;DHT22;13765;51.166;4.466;2023-04-28T06:11:55;11.80;99.90
25973;DHT22;13765;51.166;4.466;2023-04-28T06:14:23;11.90;99.90
25973;DHT22;13765;51.166;4.466;2023-04-28T06:16:49;11.90;99.90
25973;DHT22;13765;51.166;4.466;2023-04-28T06:19:22;12.00;99.90
25973;DHT22;13765;51.166;4.466;2023-04-28T06:21:50;12.00;99.90
25973;DHT22;13765;51.166;4.466;2023-04-28T06:24:18;12.10;99.90
25973;DHT22;13765;51.166;4.466;2023-04-28T06:26:46;12.00;99.90
25973;DHT22;13765;51.166;4.466;2023-04-28T06:29:14;12.00;99.90
25973;DHT22;13765;51.166;4.466;2023-04-28T06:31:42;12.00;99.90
25973;DHT22;13765;51.166;4.466;2023-04-28T06:34:10;11.90;99.90
25973;DHT22;13765;51.166;4.466;2023-04-28T06:36:36;12.00;99.90
25973;DHT22;13765;51.166;4.466;2023-04-28T06:39:01;12.10;99.90
25973;DHT22;13765;51.166;4.466;2023-04-28T06:41:29;12.20;99.90
25973;DHT22;13765;51.166;4.466;2023-04-28T06:43:58;12.20;99.90
25973;DHT22;13765;51.166;4.466;2023-04-28T06:46:26;12.20;99.90
25973;DHT22;13765;51.166;4.466;2023-04-28T06:48:52;12.30;99.90
25973;DHT22;13765;51.166;4.466;2023-04-28T06:51:17;12.40;99.90
25973;DHT22;13765;51.166;4.466;2023-04-28T06:53:43;12.40;99.90
25973;DHT22;13765;51.166;4.466;2023-04-28T06:56:08;12.40;99.90
25973;DHT22;13765;51.166;4.466;2023-04-28T06:58:34;12.50;99.90
25973;DHT22;13765;51.166;4.466;2023-04-28T07:01:00;12.40;99.90
25973;DHT22;13765;51.166;4.466;2023-04-28T07:03:27;12.50;99.90
25973;DHT22;13765;51.166;4.466;2023-04-28T07:05:55;12.50;99.90
25973;DHT22;13765;51.166;4.466;2023-04-28T07:08:21;12.60;99.90
25973;DHT22;13765;51.166;4.466;2023-04-28T07:10:47;13.00;99.90
25973;DHT22;13765;51.166;4.466;2023-04-28T07:13:13;13.00;99.90
25973;DHT22;13765;51.166;4.466;2023-04-28T07:15:38;13.20;99.90
25973;DHT22;13765;51.166;4.466;2023-04-28T07:18:06;13.30;99.90
25973;DHT22;13765;51.166;4.466;2023-04-28T07:20:34;13.50;99.90
25973;DHT22;13765;51.166;4.466;2023-04-28T07:23:02;13.60;99.90
25973;DHT22;13765;51.166;4.466;2023-04-28T07:25:33;13.70;99.90
25973;DHT22;13765;51.166;4.466;2023-04-28T07:28:02;13.70;99.90
25973;DHT22;13765;51.166;4.466;2023-04-28T07:30:28;13.70;99.90
25973;DHT22;13765;51.166;4.466;2023-04-28T07:32:56;13.70;99.90
25973;DHT22;13765;51.166;4.466;2023-04-28T07:35:23;13.80;99.90
25973;DHT22;13765;51.166;4.466;2023-04-28T07:37:51;13.90;99.90
25973;DHT22;13765;51.166;4.466;2023-04-28T07:40:18;14.00;99.90
25973;DHT22;13765;51.166;4.466;2023-04-28T07:42:44;14.00;99.90
25973;DHT22;13765;51.166;4.466;2023-04-28T07:45:13;14.10;99.90
25973;DHT22;13765;51.166;4.466;2023-04-28T07:47:40;14.10;99.90
25973;DHT22;13765;51.166;4.466;2023-04-28T07:50:07;14.20;99.90
25973;DHT22;13765;51.166;4.466;2023-04-28T07:52:35;14.30;99.90
25973;DHT22;13765;51.166;4.466;2023-04-28T07:55:00;14.40;99.90
25973;DHT22;13765;51.166;4.466;2023-04-28T07:57:27;14.20;99.90
25973;DHT22;13765;51.166;4.466;2023-04-28T07:59:55;14.20;99.90
25973;DHT22;13765;51.166;4.466;2023-04-28T08:02:21;14.30;99.90
25973;DHT22;13765;51.166;4.466;2023-04-28T08:04:49;14.30;99.90
25973;DHT22;13765;51.166;4.466;2023-04-28T08:07:17;14.60;99.90
25973;DHT22;13765;51.166;4.466;2023-04-28T08:09:43;14.70;99.90
25973;DHT22;13765;51.166;4.466;2023-04-28T08:12:13;15.00;99.90
25973;DHT22;13765;51.166;4.466;2023-04-28T08:14:39;15.20;99.90
25973;DHT22;13765;51.166;4.466;2023-04-28T08:17:04;15.20;99.90
25973;DHT22;13765;51.166;4.466;2023-04-28T08:19:30;15.20;99.90
25973;DHT22;13765;51.166;4.466;2023-04-28T08:21:56;15.20;99.90
25973;DHT22;13765;51.166;4.466;2023-04-28T08:24:24;15.20;99.90
25973;DHT22;13765;51.166;4.466;2023-04-28T08:26:50;15.30;99.90
25973;DHT22;13765;51.166;4.466;2023-04-28T08:29:16;15.50;99.90
25973;DHT22;13765;51.166;4.466;2023-04-28T08:31:42;15.50;99.90
25973;DHT22;13765;51.166;4.466;2023-04-28T08:34:08;15.60;99.90
25973;DHT22;13765;51.166;4.466;2023-04-28T08:36:36;15.60;99.90
25973;DHT22;13765;51.166;4.466;2023-04-28T08:39:04;15.60;99.90
25973;DHT22;13765;51.166;4.466;2023-04-28T08:41:33;15.60;99.90
25973;DHT22;13765;51.166;4.466;2023-04-28T08:44:08;15.60;99.90
25973;DHT22;13765;51.166;4.466;2023-04-28T08:46:37;15.60;99.90
25973;DHT22;13765;51.166;4.466;2023-04-28T08:49:14;15.70;99.90
25973;DHT22;13765;51.166;4.466;2023-04-28T08:51:48;15.70;99.90
25973;DHT22;13765;51.166;4.466;2023-04-28T08:54:14;15.70;99.90
25973;DHT22;13765;51.166;4.466;2023-04-28T08:56:46;15.70;99.90
25973;DHT22;13765;51.166;4.466;2023-04-28T08:59:15;15.90;99.90
25973;DHT22;13765;51.166;4.466;2023-04-28T09:01:42;16.00;99.90
25973;DHT22;13765;51.166;4.466;2023-04-28T09:04:08;16.10;99.90
25973;DHT22;13765;51.166;4.466;2023-04-28T09:06:39;16.20;99.90
25973;DHT22;13765;51.166;4.466;2023-04-28T09:09:25;16.30;99.90
25973;DHT22;13765;51.166;4.466;2023-04-28T09:11:58;16.30;99.90
25973;DHT22;13765;51.166;4.466;2023-04-28T09:14:35;16.30;99.90
25973;DHT22;13765;51.166;4.466;2023-04-28T09:17:08;16.30;99.90
25973;DHT22;13765;51.166;4.466;2023-04-28T09:19:35;16.30;99.90
25973;DHT22;13765;51.166;4.466;2023-04-28T09:22:04;16.30;99.90
25973;DHT22;13765;51.166;4.466;2023-04-28T09:24:39;16.40;99.90
25973;DHT22;13765;51.166;4.466;2023-04-28T09:27:08;16.60;99.90
25973;DHT22;13765;51.166;4.466;2023-04-28T09:29:36;16.80;99.90
25973;DHT22;13765;51.166;4.466;2023-04-28T09:34:48;16.80;99.90
25973;DHT22;13765;51.166;4.466;2023-04-28T09:37:18;16.70;99.90
25973;DHT22;13765;51.166;4.466;2023-04-28T09:39:48;16.50;99.90
25973;DHT22;13765;51.166;4.466;2023-04-28T09:42:36;16.60;99.90
25973;DHT22;13765;51.166;4.466;2023-04-28T09:45:07;16.60;99.90
25973;DHT22;13765;51.166;4.466;2023-04-28T09:47:36;16.50;99.90
25973;DHT22;13765;51.166;4.466;2023-04-28T09:50:04;16.40;99.90
25973;DHT22;13765;51.166;4.466;2023-04-28T09:52:34;16.40;99.90
25973;DHT22;13765;51.166;4.466;2023-04-28T09:55:06;16.40;99.90
25973;DHT22;13765;51.166;4.466;2023-04-28T09:57:34;16.40;99.90
25973;DHT22;13765;51.166;4.466;2023-04-28T10:00:01;16.40;99.90
25973;DHT22;13765;51.166;4.466;2023-04-28T10:02:30;16.60;99.90
25973;DHT22;13765;51.166;4.466;2023-04-28T10:05:01;16.80;99.90
25973;DHT22;13765;51.166;4.466;2023-04-28T10:07:33;16.80;99.90
25973;DHT22;13765;51.166;4.466;2023-04-28T10:10:00;16.90;99.90
25973;DHT22;13765;51.166;4.466;2023-04-28T10:12:28;16.70;99.90
25973;DHT22;13765;51.166;4.466;2023-04-28T10:14:57;16.60;99.90
25973;DHT22;13765;51.166;4.466;2023-04-28T10:17:23;16.60;99.90
25973;DHT22;13765;51.166;4.466;2023-04-28T10:19:56;16.50;99.90
25973;DHT22;13765;51.166;4.466;2023-04-28T10:27:32;16.40;99.90
25973;DHT22;13765;51.166;4.466;2023-04-28T10:30:16;16.20;99.90
25973;DHT22;13765;51.166;4.466;2023-04-28T10:32:46;16.20;99.90
25973;DHT22;13765;51.166;4.466;2023-04-28T10:38:12;16.20;99.90
25973;DHT22;13765;51.166;4.466;2023-04-28T10:40:47;16.20;99.90
25973;DHT22;13765;51.166;4.466;2023-04-28T10:43:34;16.20;99.90
25973;DHT22;13765;51.166;4.466;2023-04-28T10:46:03;16.10;99.90
25973;DHT22;13765;51.166;4.466;2023-04-28T10:56:24;16.10;99.90
25973;DHT22;13765;51.166;4.466;2023-04-28T10:58:55;16.10;99.90
25973;DHT22;13765;51.166;4.466;2023-04-28T11:03:52;16.20;99.90
25973;DHT22;13765;51.166;4.466;2023-04-28T11:08:55;16.00;99.90
25973;DHT22;13765;51.166;4.466;2023-04-28T11:11:22;16.00;99.90
25973;DHT22;13765;51.166;4.466;2023-04-28T11:13:50;15.80;99.90
25973;DHT22;13765;51.166;4.466;2023-04-28T11:16:22;15.80;99.90
25973;DHT22;13765;51.166;4.466;2023-04-28T11:18:54;15.60;99.90
25973;DHT22;13765;51.166;4.466;2023-04-28T11:21:22;15.60;99.90
25973;DHT22;13765;51.166;4.466;2023-04-28T11:23:48;15.60;99.90
25973;DHT22;13765;51.166;4.466;2023-04-28T11:26:16;15.60;99.90
25973;DHT22;13765;51.166;4.466;2023-04-28T11:28:47;15.60;99.90
25973;DHT22;13765;51.166;4.466;2023-04-28T11:31:16;15.50;99.90
25973;DHT22;13765;51.166;4.466;2023-04-28T11:34:17;15.50;99.90
25973;DHT22;13765;51.166;4.466;2023-04-28T11:36:45;15.50;99.90
25973;DHT22;13765;51.166;4.466;2023-04-28T11:39:12;15.60;99.90
25973;DHT22;13765;51.166;4.466;2023-04-28T11:41:42;15.70;99.90
25973;DHT22;13765;51.166;4.466;2023-04-28T11:44:15;15.70;99.90
25973;DHT22;13765;51.166;4.466;2023-04-28T11:46:45;15.60;99.90
25973;DHT22;13765;51.166;4.466;2023-04-28T11:49:15;15.60;99.90
25973;DHT22;13765;51.166;4.466;2023-04-28T11:51:45;15.50;99.90
25973;DHT22;13765;51.166;4.466;2023-04-28T11:54:18;15.40;99.90
25973;DHT22;13765;51.166;4.466;2023-04-28T11:56:47;15.40;99.90
25973;DHT22;13765;51.166;4.466;2023-04-28T11:59:15;15.40;99.90
25973;DHT22;13765;51.166;4.466;2023-04-28T12:01:51;15.50;99.90
25973;DHT22;13765;51.166;4.466;2023-04-28T12:04:27;15.50;99.90
25973;DHT22;13765;51.166;4.466;2023-04-28T12:09:33;15.60;99.90
25973;DHT22;13765;51.166;4.466;2023-04-28T12:12:01;15.50;99.90
25973;DHT22;13765;51.166;4.466;2023-04-28T12:14:29;15.50;99.90
25973;DHT22;13765;51.166;4.466;2023-04-28T12:16:58;15.50;99.90
25973;DHT22;13765;51.166;4.466;2023-04-28T12:19:24;15.60;99.90
25973;DHT22;13765;51.166;4.466;2023-04-28T12:22:02;15.70;99.90
25973;DHT22;13765;51.166;4.466;2023-04-28T12:24:28;15.70;99.90
25973;DHT22;13765;51.166;4.466;2023-04-28T12:26:54;15.70;99.90
25973;DHT22;13765;51.166;4.466;2023-04-28T12:29:39;15.80;99.90
25973;DHT22;13765;51.166;4.466;2023-04-28T12:32:09;15.80;99.90
25973;DHT22;13765;51.166;4.466;2023-04-28T12:34:37;16.00;99.90
25973;DHT22;13765;51.166;4.466;2023-04-28T12:37:04;16.10;99.90
25973;DHT22;13765;51.166;4.466;2023-04-28T12:39:34;16.10;99.90
25973;DHT22;13765;51.166;4.466;2023-04-28T12:42:02;16.10;99.90
25973;DHT22;13765;51.166;4.466;2023-04-28T12:44:32;16.30;99.90
25973;DHT22;13765;51.166;4.466;2023-04-28T12:47:06;16.20;99.90
25973;DHT22;13765;51.166;4.466;2023-04-28T12:49:35;16.20;99.90
25973;DHT22;13765;51.166;4.466;2023-04-28T12:52:04;16.00;99.90
25973;DHT22;13765;51.166;4.466;2023-04-28T12:54:32;15.90;99.90
25973;DHT22;13765;51.166;4.466;2023-04-28T12:57:00;15.90;99.90
25973;DHT22;13765;51.166;4.466;2023-04-28T12:59:32;15.90;99.90
25973;DHT22;13765;51.166;4.466;2023-04-28T13:01:58;15.80;99.90
25973;DHT22;13765;51.166;4.466;2023-04-28T13:04:24;15.80;99.90
25973;DHT22;13765;51.166;4.466;2023-04-28T13:06:52;15.90;99.90
25973;DHT22;13765;51.166;4.466;2023-04-28T13:09:18;15.90;99.90
25973;DHT22;13765;51.166;4.466;2023-04-28T13:11:45;15.90;99.90
25973;DHT22;13765;51.166;4.466;2023-04-28T13:14:11;16.00;99.90
25973;DHT22;13765;51.166;4.466;2023-04-28T13:16:37;16.00;99.90
25973;DHT22;13765;51.166;4.466;2023-04-28T13:19:03;16.10;99.90
25973;DHT22;13765;51.166;4.466;2023-04-28T13:21:33;16.10;99.90
25973;DHT22;13765;51.166;4.466;2023-04-28T13:23:59;16.10;99.90
25973;DHT22;13765;51.166;4.466;2023-04-28T13:26:27;16.10;99.90
25973;DHT22;13765;51.166;4.466;2023-04-28T13:28:54;16.00;99.90
25973;DHT22;13765;51.166;4.466;2023-04-28T13:31:20;15.90;99.90
25973;DHT22;13765;51.166;4.466;2023-04-28T13:33:46;15.90;99.90
25973;DHT22;13765;51.166;4.466;2023-04-28T13:36:12;15.80;99.90
25973;DHT22;13765;51.166;4.466;2023-04-28T13:38:39;15.80;99.90
25973;DHT22;13765;51.166;4.466;2023-04-28T13:41:05;15.80;99.90
25973;DHT22;13765;51.166;4.466;2023-04-28T13:43:36;15.80;99.90
25973;DHT22;13765;51.166;4.466;2023-04-28T13:46:07;15.80;99.90
25973;DHT22;13765;51.166;4.466;2023-04-28T13:48:37;15.80;99.90
25973;DHT22;13765;51.166;4.466;2023-04-28T13:51:03;15.80;99.90
25973;DHT22;13765;51.166;4.466;2023-04-28T13:53:30;15.90;99.90
25973;DHT22;13765;51.166;4.466;2023-04-28T13:55:56;15.90;99.90
25973;DHT22;13765;51.166;4.466;2023-04-28T13:58:30;15.70;99.90
25973;DHT22;13765;51.166;4.466;2023-04-28T14:00:56;15.80;99.90
25973;DHT22;13765;51.166;4.466;2023-04-28T14:03:25;15.70;99.90
25973;DHT22;13765;51.166;4.466;2023-04-28T14:05:56;15.70;99.90
25973;DHT22;13765;51.166;4.466;2023-04-28T14:08:23;15.80;99.90
25973;DHT22;13765;51.166;4.466;2023-04-28T14:10:51;15.80;99.90
25973;DHT22;13765;51.166;4.466;2023-04-28T14:13:18;15.80;99.90
25973;DHT22;13765;51.166;4.466;2023-04-28T14:15:43;15.80;99.90
25973;DHT22;13765;51.166;4.466;2023-04-28T14:18:12;15.90;99.90
25973;DHT22;13765;51.166;4.466;2023-04-28T14:20:43;16.00;99.90
25973;DHT22;13765;51.166;4.466;2023-04-28T14:23:08;16.10;99.90
25973;DHT22;13765;51.166;4.466;2023-04-28T14:25:34;16.30;99.90
25973;DHT22;13765;51.166;4.466;2023-04-28T14:28:04;16.40;99.90
25973;DHT22;13765;51.166;4.466;2023-04-28T14:30:32;16.50;99.90
25973;DHT22;13765;51.166;4.466;2023-04-28T14:32:57;16.50;99.90
25973;DHT22;13765;51.166;4.466;2023-04-28T14:35:23;16.60;99.90
25973;DHT22;13765;51.166;4.466;2023-04-28T14:37:51;16.70;99.90
25973;DHT22;13765;51.166;4.466;2023-04-28T14:40:19;16.70;99.90
25973;DHT22;13765;51.166;4.466;2023-04-28T14:42:45;16.70;99.90
25973;DHT22;13765;51.166;4.466;2023-04-28T14:45:11;16.80;99.90
25973;DHT22;13765;51.166;4.466;2023-04-28T14:47:40;16.80;99.90
25973;DHT22;13765;51.166;4.466;2023-04-28T14:50:10;16.80;99.90
25973;DHT22;13765;51.166;4.466;2023-04-28T14:52:36;16.80;99.90
25973;DHT22;13765;51.166;4.466;2023-04-28T14:55:04;16.70;99.90
25973;DHT22;13765;51.166;4.466;2023-04-28T14:57:30;16.70;99.90
25973;DHT22;13765;51.166;4.466;2023-04-28T14:59:58;16.50;99.90
25973;DHT22;13765;51.166;4.466;2023-04-28T15:02:24;16.60;99.90
25973;DHT22;13765;51.166;4.466;2023-04-28T15:04:56;16.50;99.90
25973;DHT22;13765;51.166;4.466;2023-04-28T15:07:27;16.50;99.90
25973;DHT22;13765;51.166;4.466;2023-04-28T15:09:58;16.50;99.90
25973;DHT22;13765;51.166;4.466;2023-04-28T15:12:24;16.50;99.90
25973;DHT22;13765;51.166;4.466;2023-04-28T15:14:52;16.40;99.90
25973;DHT22;13765;51.166;4.466;2023-04-28T15:17:20;16.30;99.90
25973;DHT22;13765;51.166;4.466;2023-04-28T15:19:47;16.30;99.90
25973;DHT22;13765;51.166;4.466;2023-04-28T15:22:16;16.30;99.90
25973;DHT22;13765;51.166;4.466;2023-04-28T15:24:42;16.30;99.90
25973;DHT22;13765;51.166;4.466;2023-04-28T15:27:07;16.40;99.90
25973;DHT22;13765;51.166;4.466;2023-04-28T15:29:33;16.30;99.90
25973;DHT22;13765;51.166;4.466;2023-04-28T15:31:59;16.40;99.90
25973;DHT22;13765;51.166;4.466;2023-04-28T15:34:26;16.40;99.90
25973;DHT22;13765;51.166;4.466;2023-04-28T15:36:52;16.40;99.90
25973;DHT22;13765;51.166;4.466;2023-04-28T15:39:21;16.40;99.90
25973;DHT22;13765;51.166;4.466;2023-04-28T15:41:51;16.20;99.90
25973;DHT22;13765;51.166;4.466;2023-04-28T15:44:19;16.30;99.90
25973;DHT22;13765;51.166;4.466;2023-04-28T15:46:45;16.20;99.90
25973;DHT22;13765;51.166;4.466;2023-04-28T15:49:11;16.30;99.90
25973;DHT22;13765;51.166;4.466;2023-04-28T15:51:36;16.30;99.90
25973;DHT22;13765;51.166;4.466;2023-04-28T15:54:02;16.40;99.90
25973;DHT22;13765;51.166;4.466;2023-04-28T15:56:28;16.30;99.90
25973;DHT22;13765;51.166;4.466;2023-04-28T15:58:57;16.40;99.90
25973;DHT22;13765;51.166;4.466;2023-04-28T16:01:23;16.50;99.90